Lynchburg, VA (24504)

10:36 PM EDT on July 03, 2015 (GMT -0400)
Concord Turnpike | | Change Station
CLOSE
Current Station
Personal Weather Station
Location: Lynchburg, VA
Elevation: 543 ft
Nearby Weather Stations

Elev 543 ft 37.40 °N, 79.11 °W | Updated 57 seconds ago

Overcast
Overcast
69.4 °F
Feels Like 69.4 °F
N
2.2
Wind Variable Wind from SSE
Gusts 4.7 mph

Today
High -- | Low -- °F
--% Chance of Precip.
Yesterday
High -- | Low -- °F
Precip. -- in
6:00 AM 8:41 PM
Waning Gibbous, 95% visible
Pressure 29.95 in
Visibility 4.0 miles
Clouds Mostly Cloudy 1900 ft
Overcast 4400 ft
Dew Point 66 °F
Humidity 89%
Rainfall 0.23 in
Snow Depth Not available.
UV 0 out of 12
Pollen .50 out of 12
Air Quality Not available.
Flu Activity Not available.
SPECI KLYH 040227Z AUTO 02005KT 4SM BR BKN019 OVC044 20/19 A2995 RMK AO2 T02000194

More Conditions Fewer Conditions

Pressure 29.95 in
Visibility 4.0 miles
Clouds Mostly Cloudy 1900 ft
Overcast 4400 ft
Dew Point 66 °F
Humidity 89%
Rainfall 0.23 in
Snow Depth Not available.
UV 0 out of 12
Pollen .50 out of 12
Air Quality Not available.
Flu Activity Not available.
SPECI KLYH 040227Z AUTO 02005KT 4SM BR BKN019 OVC044 20/19 A2995 RMK AO2 T02000194

More Conditions Fewer Conditions

10-Day Weather Forecast

×

Almanac

Astronomy

Jul. 03, 2015 Rise Set
Actual Time
Civil Twilight
Nautical Twilight
Astronomical Twilight
Moon
Length of Visible Light
Length of Day
Tomorrow will be .
, % of the Moon is Illuminated

Today's Extremes

State Highs State Lows

Community

WunderPhotos

Upload Photos

1,834,901 photos uploaded!

WunderBlogs® & News

Nearby

Air Quality

  Air Quality AQ Index Pollutant
Not available.

Snow Depth

Station Depth Elevation

Earthquake Activity

City Distance Mag. Time & Date
Minimum magnitude displayed is 2.5.

Coastal Water Temperatures

Place Temperature

Stations

Nearby Weather Stations

Station Location Temp. Windchill Dew Point Humidity Wind Precip. Elev Updated Type